sensor_id;sensor_type;location;lat;lon;timestamp;temperature;humidity
59881;DHT22;45751;51.380;10.326;2022-07-11T00:00:04;13.40;99.90
59881;DHT22;45751;51.380;10.326;2022-07-11T00:02:31;13.40;99.90
59881;DHT22;45751;51.380;10.326;2022-07-11T00:04:58;13.40;99.90
59881;DHT22;45751;51.380;10.326;2022-07-11T00:07:25;13.40;99.90
59881;DHT22;45751;51.380;10.326;2022-07-11T00:09:52;13.40;99.90
59881;DHT22;45751;51.380;10.326;2022-07-11T00:12:19;13.40;99.90
59881;DHT22;45751;51.380;10.326;2022-07-11T00:14:48;13.40;99.90
59881;DHT22;45751;51.380;10.326;2022-07-11T00:17:15;13.40;99.90
59881;DHT22;45751;51.380;10.326;2022-07-11T00:19:41;13.40;99.90
59881;DHT22;45751;51.380;10.326;2022-07-11T00:22:08;13.40;99.90
59881;DHT22;45751;51.380;10.326;2022-07-11T00:24:35;13.50;99.90
59881;DHT22;45751;51.380;10.326;2022-07-11T00:27:03;13.30;99.90
59881;DHT22;45751;51.380;10.326;2022-07-11T00:29:31;13.40;99.90
59881;DHT22;45751;51.380;10.326;2022-07-11T00:31:58;13.40;99.90
59881;DHT22;45751;51.380;10.326;2022-07-11T00:34:25;13.40;99.90
59881;DHT22;45751;51.380;10.326;2022-07-11T00:36:52;13.40;99.90
59881;DHT22;45751;51.380;10.326;2022-07-11T00:39:20;13.50;99.90
59881;DHT22;45751;51.380;10.326;2022-07-11T00:41:46;13.40;99.90
59881;DHT22;45751;51.380;10.326;2022-07-11T00:44:13;13.40;99.90
59881;DHT22;45751;51.380;10.326;2022-07-11T00:46:41;13.40;99.90
59881;DHT22;45751;51.380;10.326;2022-07-11T00:49:08;13.40;99.90
59881;DHT22;45751;51.380;10.326;2022-07-11T00:51:36;13.40;99.90
59881;DHT22;45751;51.380;10.326;2022-07-11T00:54:03;13.40;99.90
59881;DHT22;45751;51.380;10.326;2022-07-11T00:56:33;13.40;99.90
59881;DHT22;45751;51.380;10.326;2022-07-11T00:58:59;13.40;99.90
59881;DHT22;45751;51.380;10.326;2022-07-11T01:01:27;13.40;99.90
59881;DHT22;45751;51.380;10.326;2022-07-11T01:03:54;13.40;99.90
59881;DHT22;45751;51.380;10.326;2022-07-11T01:06:21;13.40;99.90
59881;DHT22;45751;51.380;10.326;2022-07-11T01:08:48;13.30;99.90
59881;DHT22;45751;51.380;10.326;2022-07-11T01:11:15;13.30;99.90
59881;DHT22;45751;51.380;10.326;2022-07-11T01:13:44;13.30;99.90
59881;DHT22;45751;51.380;10.326;2022-07-11T01:16:17;13.30;99.90
59881;DHT22;45751;51.380;10.326;2022-07-11T01:18:47;13.30;99.90
59881;DHT22;45751;51.380;10.326;2022-07-11T01:23:54;13.30;99.90
59881;DHT22;45751;51.380;10.326;2022-07-11T01:26:22;13.30;99.90
59881;DHT22;45751;51.380;10.326;2022-07-11T01:28:50;13.30;99.90
59881;DHT22;45751;51.380;10.326;2022-07-11T01:31:19;13.30;99.90
59881;DHT22;45751;51.380;10.326;2022-07-11T01:33:47;13.30;99.90
59881;DHT22;45751;51.380;10.326;2022-07-11T01:36:14;13.20;99.90
59881;DHT22;45751;51.380;10.326;2022-07-11T01:38:41;13.30;99.90
59881;DHT22;45751;51.380;10.326;2022-07-11T01:41:08;13.30;99.90
59881;DHT22;45751;51.380;10.326;2022-07-11T01:43:35;13.30;99.90
59881;DHT22;45751;51.380;10.326;2022-07-11T01:46:02;13.30;99.90
59881;DHT22;45751;51.380;10.326;2022-07-11T01:48:28;13.20;99.90
59881;DHT22;45751;51.380;10.326;2022-07-11T01:50:55;13.30;99.90
59881;DHT22;45751;51.380;10.326;2022-07-11T01:53:23;13.20;99.90
59881;DHT22;45751;51.380;10.326;2022-07-11T01:55:50;13.20;99.90
59881;DHT22;45751;51.380;10.326;2022-07-11T01:58:37;13.20;99.90
59881;DHT22;45751;51.380;10.326;2022-07-11T02:01:04;13.20;99.90
59881;DHT22;45751;51.380;10.326;2022-07-11T02:03:31;13.20;99.90
59881;DHT22;45751;51.380;10.326;2022-07-11T02:05:58;13.20;99.90
59881;DHT22;45751;51.380;10.326;2022-07-11T02:08:24;13.30;99.90
59881;DHT22;45751;51.380;10.326;2022-07-11T02:10:52;13.20;99.90
59881;DHT22;45751;51.380;10.326;2022-07-11T02:13:20;13.20;99.90
59881;DHT22;45751;51.380;10.326;2022-07-11T02:15:47;13.30;99.90
59881;DHT22;45751;51.380;10.326;2022-07-11T02:18:16;13.20;99.90
59881;DHT22;45751;51.380;10.326;2022-07-11T02:20:43;13.20;99.90
59881;DHT22;45751;51.380;10.326;2022-07-11T02:23:12;13.20;99.90
59881;DHT22;45751;51.380;10.326;2022-07-11T02:25:39;13.20;99.90
59881;DHT22;45751;51.380;10.326;2022-07-11T02:28:07;13.20;99.90
59881;DHT22;45751;51.380;10.326;2022-07-11T02:30:35;13.30;99.90
59881;DHT22;45751;51.380;10.326;2022-07-11T02:33:03;13.20;99.90
59881;DHT22;45751;51.380;10.326;2022-07-11T02:35:31;13.10;99.90
59881;DHT22;45751;51.380;10.326;2022-07-11T02:37:58;13.20;99.90
59881;DHT22;45751;51.380;10.326;2022-07-11T02:40:25;13.10;99.90
59881;DHT22;45751;51.380;10.326;2022-07-11T02:42:53;13.10;99.90
59881;DHT22;45751;51.380;10.326;2022-07-11T02:45:20;13.20;99.90
59881;DHT22;45751;51.380;10.326;2022-07-11T02:47:47;13.20;99.90
59881;DHT22;45751;51.380;10.326;2022-07-11T02:50:14;13.10;99.90
59881;DHT22;45751;51.380;10.326;2022-07-11T02:52:42;13.10;99.90
59881;DHT22;45751;51.380;10.326;2022-07-11T02:55:10;13.10;99.90
59881;DHT22;45751;51.380;10.326;2022-07-11T02:57:37;13.20;99.90
59881;DHT22;45751;51.380;10.326;2022-07-11T03:00:07;13.20;99.90
59881;DHT22;45751;51.380;10.326;2022-07-11T03:02:34;13.20;99.90
59881;DHT22;45751;51.380;10.326;2022-07-11T03:05:02;13.10;99.90
59881;DHT22;45751;51.380;10.326;2022-07-11T03:07:29;13.20;99.90
59881;DHT22;45751;51.380;10.326;2022-07-11T03:09:56;13.10;99.90
59881;DHT22;45751;51.380;10.326;2022-07-11T03:12:23;13.10;99.90
59881;DHT22;45751;51.380;10.326;2022-07-11T03:14:50;13.20;99.90
59881;DHT22;45751;51.380;10.326;2022-07-11T03:17:18;13.10;99.90
59881;DHT22;45751;51.380;10.326;2022-07-11T03:19:45;13.10;99.90
59881;DHT22;45751;51.380;10.326;2022-07-11T03:22:14;13.10;99.90
59881;DHT22;45751;51.380;10.326;2022-07-11T03:24:42;13.10;99.90
59881;DHT22;45751;51.380;10.326;2022-07-11T03:27:09;13.10;99.90
59881;DHT22;45751;51.380;10.326;2022-07-11T03:29:39;13.10;99.90
59881;DHT22;45751;51.380;10.326;2022-07-11T03:32:08;13.00;99.90
59881;DHT22;45751;51.380;10.326;2022-07-11T03:34:35;13.10;99.90
59881;DHT22;45751;51.380;10.326;2022-07-11T03:37:03;13.10;99.90
59881;DHT22;45751;51.380;10.326;2022-07-11T03:39:30;13.10;99.90
59881;DHT22;45751;51.380;10.326;2022-07-11T03:41:57;13.10;99.90
59881;DHT22;45751;51.380;10.326;2022-07-11T03:44:24;12.90;99.90
59881;DHT22;45751;51.380;10.326;2022-07-11T03:46:51;13.00;99.90
59881;DHT22;45751;51.380;10.326;2022-07-11T03:49:18;13.00;99.90
59881;DHT22;45751;51.380;10.326;2022-07-11T03:51:44;13.00;99.90
59881;DHT22;45751;51.380;10.326;2022-07-11T03:54:11;13.00;99.90
59881;DHT22;45751;51.380;10.326;2022-07-11T03:56:38;13.00;99.90
59881;DHT22;45751;51.380;10.326;2022-07-11T03:59:05;13.00;99.90
59881;DHT22;45751;51.380;10.326;2022-07-11T04:01:32;13.00;99.90
59881;DHT22;45751;51.380;10.326;2022-07-11T04:03:59;13.00;99.90
59881;DHT22;45751;51.380;10.326;2022-07-11T04:06:27;13.00;99.90
59881;DHT22;45751;51.380;10.326;2022-07-11T04:08:54;13.00;99.90
59881;DHT22;45751;51.380;10.326;2022-07-11T04:11:20;13.00;99.90
59881;DHT22;45751;51.380;10.326;2022-07-11T04:13:47;13.00;99.90
59881;DHT22;45751;51.380;10.326;2022-07-11T04:16:14;13.00;99.90
59881;DHT22;45751;51.380;10.326;2022-07-11T04:18:41;13.00;99.90
59881;DHT22;45751;51.380;10.326;2022-07-11T04:21:08;13.00;99.90
59881;DHT22;45751;51.380;10.326;2022-07-11T04:23:36;13.10;99.90
59881;DHT22;45751;51.380;10.326;2022-07-11T04:26:03;13.10;99.90
59881;DHT22;45751;51.380;10.326;2022-07-11T04:28:30;13.00;99.90
59881;DHT22;45751;51.380;10.326;2022-07-11T04:30:58;13.10;99.90
59881;DHT22;45751;51.380;10.326;2022-07-11T04:33:24;13.10;99.90
59881;DHT22;45751;51.380;10.326;2022-07-11T04:35:51;13.10;99.90
59881;DHT22;45751;51.380;10.326;2022-07-11T04:38:18;13.10;99.90
59881;DHT22;45751;51.380;10.326;2022-07-11T04:40:49;13.20;99.90
59881;DHT22;45751;51.380;10.326;2022-07-11T04:43:16;13.20;99.90
59881;DHT22;45751;51.380;10.326;2022-07-11T04:45:43;13.10;99.90
59881;DHT22;45751;51.380;10.326;2022-07-11T04:48:10;13.20;99.90
59881;DHT22;45751;51.380;10.326;2022-07-11T04:50:37;13.20;99.90
59881;DHT22;45751;51.380;10.326;2022-07-11T04:53:04;13.20;99.90
59881;DHT22;45751;51.380;10.326;2022-07-11T04:55:31;13.20;99.90
59881;DHT22;45751;51.380;10.326;2022-07-11T04:57:58;13.20;99.90
59881;DHT22;45751;51.380;10.326;2022-07-11T05:00:25;13.30;99.90
59881;DHT22;45751;51.380;10.326;2022-07-11T05:02:52;13.30;99.90
59881;DHT22;45751;51.380;10.326;2022-07-11T05:05:19;13.30;99.90
59881;DHT22;45751;51.380;10.326;2022-07-11T05:07:48;13.30;99.90
59881;DHT22;45751;51.380;10.326;2022-07-11T05:10:15;13.30;99.90
59881;DHT22;45751;51.380;10.326;2022-07-11T05:12:41;13.40;99.90
59881;DHT22;45751;51.380;10.326;2022-07-11T05:15:09;13.30;99.90
59881;DHT22;45751;51.380;10.326;2022-07-11T05:17:36;13.40;99.90
59881;DHT22;45751;51.380;10.326;2022-07-11T05:20:03;13.40;99.90
59881;DHT22;45751;51.380;10.326;2022-07-11T05:22:30;13.40;99.90
59881;DHT22;45751;51.380;10.326;2022-07-11T05:24:57;13.40;99.90
59881;DHT22;45751;51.380;10.326;2022-07-11T05:27:24;13.50;99.90
59881;DHT22;45751;51.380;10.326;2022-07-11T05:29:51;13.40;99.90
59881;DHT22;45751;51.380;10.326;2022-07-11T05:32:17;13.40;99.90
59881;DHT22;45751;51.380;10.326;2022-07-11T05:34:44;13.40;99.90
59881;DHT22;45751;51.380;10.326;2022-07-11T05:37:11;13.40;99.90
59881;DHT22;45751;51.380;10.326;2022-07-11T05:39:38;13.40;99.90
59881;DHT22;45751;51.380;10.326;2022-07-11T05:42:05;13.40;99.90
59881;DHT22;45751;51.380;10.326;2022-07-11T05:44:32;13.40;99.90
59881;DHT22;45751;51.380;10.326;2022-07-11T05:47:00;13.40;99.90
59881;DHT22;45751;51.380;10.326;2022-07-11T05:49:27;13.40;99.90
59881;DHT22;45751;51.380;10.326;2022-07-11T05:51:54;13.40;99.90
59881;DHT22;45751;51.380;10.326;2022-07-11T05:54:21;13.40;99.90
59881;DHT22;45751;51.380;10.326;2022-07-11T05:56:48;13.40;99.90
59881;DHT22;45751;51.380;10.326;2022-07-11T05:59:15;13.40;99.90
59881;DHT22;45751;51.380;10.326;2022-07-11T06:01:42;13.50;99.90
59881;DHT22;45751;51.380;10.326;2022-07-11T06:04:09;13.50;99.90
59881;DHT22;45751;51.380;10.326;2022-07-11T06:06:36;13.40;99.90
59881;DHT22;45751;51.380;10.326;2022-07-11T06:09:02;13.50;99.90
59881;DHT22;45751;51.380;10.326;2022-07-11T06:11:30;13.50;99.90
59881;DHT22;45751;51.380;10.326;2022-07-11T06:13:57;13.50;99.90
59881;DHT22;45751;51.380;10.326;2022-07-11T06:16:26;13.50;99.90
59881;DHT22;45751;51.380;10.326;2022-07-11T06:18:54;13.60;99.90
59881;DHT22;45751;51.380;10.326;2022-07-11T06:21:20;13.50;99.90
59881;DHT22;45751;51.380;10.326;2022-07-11T06:23:48;13.60;99.90
59881;DHT22;45751;51.380;10.326;2022-07-11T06:26:15;13.60;99.90
59881;DHT22;45751;51.380;10.326;2022-07-11T06:28:43;13.60;99.90
59881;DHT22;45751;51.380;10.326;2022-07-11T06:31:10;13.60;99.90
59881;DHT22;45751;51.380;10.326;2022-07-11T06:33:37;13.60;99.90
59881;DHT22;45751;51.380;10.326;2022-07-11T06:36:05;13.60;99.90
59881;DHT22;45751;51.380;10.326;2022-07-11T06:38:32;13.60;99.90
59881;DHT22;45751;51.380;10.326;2022-07-11T06:41:00;13.60;99.90
59881;DHT22;45751;51.380;10.326;2022-07-11T06:43:28;13.60;99.90
59881;DHT22;45751;51.380;10.326;2022-07-11T06:45:56;13.70;99.90
59881;DHT22;45751;51.380;10.326;2022-07-11T06:48:23;13.70;99.90
59881;DHT22;45751;51.380;10.326;2022-07-11T06:50:50;13.70;99.90
59881;DHT22;45751;51.380;10.326;2022-07-11T06:53:17;13.70;99.90
59881;DHT22;45751;51.380;10.326;2022-07-11T06:55:44;13.70;99.90
59881;DHT22;45751;51.380;10.326;2022-07-11T06:58:11;13.70;99.90
59881;DHT22;45751;51.380;10.326;2022-07-11T07:00:49;13.70;99.90
59881;DHT22;45751;51.380;10.326;2022-07-11T07:03:16;13.70;99.90
59881;DHT22;45751;51.380;10.326;2022-07-11T07:05:46;13.70;99.90
59881;DHT22;45751;51.380;10.326;2022-07-11T07:08:14;13.70;99.90
59881;DHT22;45751;51.380;10.326;2022-07-11T07:10:40;13.70;99.90
59881;DHT22;45751;51.380;10.326;2022-07-11T07:13:07;13.60;99.90
59881;DHT22;45751;51.380;10.326;2022-07-11T07:15:34;13.70;99.90
59881;DHT22;45751;51.380;10.326;2022-07-11T07:18:01;13.80;99.90
59881;DHT22;45751;51.380;10.326;2022-07-11T07:20:30;13.80;99.90
59881;DHT22;45751;51.380;10.326;2022-07-11T07:22:57;13.80;99.90
59881;DHT22;45751;51.380;10.326;2022-07-11T07:25:25;13.80;99.90
59881;DHT22;45751;51.380;10.326;2022-07-11T07:27:52;13.80;99.90
59881;DHT22;45751;51.380;10.326;2022-07-11T07:30:19;13.80;99.90
59881;DHT22;45751;51.380;10.326;2022-07-11T07:32:46;13.80;99.90
59881;DHT22;45751;51.380;10.326;2022-07-11T07:35:13;13.80;99.90
59881;DHT22;45751;51.380;10.326;2022-07-11T07:37:40;13.70;99.90
59881;DHT22;45751;51.380;10.326;2022-07-11T07:40:07;13.70;99.90
59881;DHT22;45751;51.380;10.326;2022-07-11T07:42:34;13.70;99.90
59881;DHT22;45751;51.380;10.326;2022-07-11T07:45:01;13.70;99.90
59881;DHT22;45751;51.380;10.326;2022-07-11T07:47:28;13.70;99.90
59881;DHT22;45751;51.380;10.326;2022-07-11T07:49:56;13.70;99.90
59881;DHT22;45751;51.380;10.326;2022-07-11T07:52:23;13.70;99.90
59881;DHT22;45751;51.380;10.326;2022-07-11T07:54:50;13.70;99.90
59881;DHT22;45751;51.380;10.326;2022-07-11T07:57:16;13.70;99.90
59881;DHT22;45751;51.380;10.326;2022-07-11T07:59:43;13.70;99.90
59881;DHT22;45751;51.380;10.326;2022-07-11T08:02:10;13.70;99.90
59881;DHT22;45751;51.380;10.326;2022-07-11T08:04:37;13.70;99.90
59881;DHT22;45751;51.380;10.326;2022-07-11T08:07:04;13.70;99.90
59881;DHT22;45751;51.380;10.326;2022-07-11T08:09:31;13.70;99.90
59881;DHT22;45751;51.380;10.326;2022-07-11T08:11:58;13.70;99.90
59881;DHT22;45751;51.380;10.326;2022-07-11T08:14:25;13.70;99.90
59881;DHT22;45751;51.380;10.326;2022-07-11T08:16:52;13.70;99.90
59881;DHT22;45751;51.380;10.326;2022-07-11T08:19:19;13.70;99.90
59881;DHT22;45751;51.380;10.326;2022-07-11T08:21:46;13.70;99.90
59881;DHT22;45751;51.380;10.326;2022-07-11T08:24:12;13.70;99.90
59881;DHT22;45751;51.380;10.326;2022-07-11T08:26:39;13.70;99.90
59881;DHT22;45751;51.380;10.326;2022-07-11T08:29:06;13.70;99.90
59881;DHT22;45751;51.380;10.326;2022-07-11T08:31:33;13.70;99.90
59881;DHT22;45751;51.380;10.326;2022-07-11T08:34:02;13.70;99.90
59881;DHT22;45751;51.380;10.326;2022-07-11T08:36:29;13.70;99.90
59881;DHT22;45751;51.380;10.326;2022-07-11T08:38:58;13.70;99.90
59881;DHT22;45751;51.380;10.326;2022-07-11T08:41:25;13.70;99.90
59881;DHT22;45751;51.380;10.326;2022-07-11T08:43:52;13.70;99.90
59881;DHT22;45751;51.380;10.326;2022-07-11T08:46:19;13.60;99.90
59881;DHT22;45751;51.380;10.326;2022-07-11T08:48:47;13.70;99.90
59881;DHT22;45751;51.380;10.326;2022-07-11T08:51:15;13.70;99.90
59881;DHT22;45751;51.380;10.326;2022-07-11T08:53:42;13.70;99.90
59881;DHT22;45751;51.380;10.326;2022-07-11T08:56:12;13.70;99.90
59881;DHT22;45751;51.380;10.326;2022-07-11T08:58:46;13.70;99.90
59881;DHT22;45751;51.380;10.326;2022-07-11T09:01:28;13.80;99.90
59881;DHT22;45751;51.380;10.326;2022-07-11T09:03:56;13.70;99.90
59881;DHT22;45751;51.380;10.326;2022-07-11T09:06:23;13.70;99.90
59881;DHT22;45751;51.380;10.326;2022-07-11T09:08:50;13.80;99.90
59881;DHT22;45751;51.380;10.326;2022-07-11T09:11:17;13.80;99.90
59881;DHT22;45751;51.380;10.326;2022-07-11T09:13:43;13.80;99.90
59881;DHT22;45751;51.380;10.326;2022-07-11T09:16:10;13.90;99.90
59881;DHT22;45751;51.380;10.326;2022-07-11T09:18:39;13.80;99.90
59881;DHT22;45751;51.380;10.326;2022-07-11T09:21:08;13.80;99.90
59881;DHT22;45751;51.380;10.326;2022-07-11T09:23:59;13.80;99.90
59881;DHT22;45751;51.380;10.326;2022-07-11T09:26:47;13.80;99.90
59881;DHT22;45751;51.380;10.326;2022-07-11T09:29:16;13.80;99.90
59881;DHT22;45751;51.380;10.326;2022-07-11T09:31:44;13.90;99.90
59881;DHT22;45751;51.380;10.326;2022-07-11T09:34:16;13.90;99.90
59881;DHT22;45751;51.380;10.326;2022-07-11T09:36:51;13.90;99.90
59881;DHT22;45751;51.380;10.326;2022-07-11T09:39:22;14.00;99.90
59881;DHT22;45751;51.380;10.326;2022-07-11T09:41:51;14.00;99.90
59881;DHT22;45751;51.380;10.326;2022-07-11T09:44:23;14.00;99.90
59881;DHT22;45751;51.380;10.326;2022-07-11T09:46:51;14.00;99.90
59881;DHT22;45751;51.380;10.326;2022-07-11T09:49:36;14.00;99.90
59881;DHT22;45751;51.380;10.326;2022-07-11T09:52:14;14.00;99.90
59881;DHT22;45751;51.380;10.326;2022-07-11T09:54:58;14.00;99.90
59881;DHT22;45751;51.380;10.326;2022-07-11T09:57:33;13.90;99.90
59881;DHT22;45751;51.380;10.326;2022-07-11T10:00:02;13.90;99.90
59881;DHT22;45751;51.380;10.326;2022-07-11T10:02:30;13.90;99.90
59881;DHT22;45751;51.380;10.326;2022-07-11T10:04:59;13.80;99.90
59881;DHT22;45751;51.380;10.326;2022-07-11T10:07:28;13.80;99.90
59881;DHT22;45751;51.380;10.326;2022-07-11T10:09:56;13.80;99.90
59881;DHT22;45751;51.380;10.326;2022-07-11T10:12:24;13.80;99.90
59881;DHT22;45751;51.380;10.326;2022-07-11T10:14:53;13.80;99.90
59881;DHT22;45751;51.380;10.326;2022-07-11T10:17:39;13.80;99.90
59881;DHT22;45751;51.380;10.326;2022-07-11T10:23:05;13.80;99.90
59881;DHT22;45751;51.380;10.326;2022-07-11T10:31:01;13.90;99.90
59881;DHT22;45751;51.380;10.326;2022-07-11T10:33:29;14.00;99.90
59881;DHT22;45751;51.380;10.326;2022-07-11T10:35:56;14.00;99.90
59881;DHT22;45751;51.380;10.326;2022-07-11T10:38:25;14.10;99.90
59881;DHT22;45751;51.380;10.326;2022-07-11T10:40:56;14.20;99.90
59881;DHT22;45751;51.380;10.326;2022-07-11T10:43:39;14.20;99.90
59881;DHT22;45751;51.380;10.326;2022-07-11T10:46:10;14.30;99.90
59881;DHT22;45751;51.380;10.326;2022-07-11T10:49:02;14.30;99.90
59881;DHT22;45751;51.380;10.326;2022-07-11T10:51:52;14.40;99.90
59881;DHT22;45751;51.380;10.326;2022-07-11T10:54:46;14.40;99.90
59881;DHT22;45751;51.380;10.326;2022-07-11T10:57:46;14.60;99.90
59881;DHT22;45751;51.380;10.326;2022-07-11T11:00:20;14.60;99.90
59881;DHT22;45751;51.380;10.326;2022-07-11T11:03:06;14.80;99.90
59881;DHT22;45751;51.380;10.326;2022-07-11T11:14:19;15.00;99.90
59881;DHT22;45751;51.380;10.326;2022-07-11T11:16:47;15.00;99.90
59881;DHT22;45751;51.380;10.326;2022-07-11T11:22:13;15.10;99.90
59881;DHT22;45751;51.380;10.326;2022-07-11T11:24:44;15.20;99.90
59881;DHT22;45751;51.380;10.326;2022-07-11T11:27:31;15.30;99.90
59881;DHT22;45751;51.380;10.326;2022-07-11T11:29:58;15.40;99.90
59881;DHT22;45751;51.380;10.326;2022-07-11T11:32:32;15.50;99.90
59881;DHT22;45751;51.380;10.326;2022-07-11T11:35:01;15.50;99.90
59881;DHT22;45751;51.380;10.326;2022-07-11T11:37:29;15.60;99.90
59881;DHT22;45751;51.380;10.326;2022-07-11T11:39:58;15.70;99.90
59881;DHT22;45751;51.380;10.326;2022-07-11T11:42:28;15.70;99.90
59881;DHT22;45751;51.380;10.326;2022-07-11T11:44:57;15.70;99.90
59881;DHT22;45751;51.380;10.326;2022-07-11T11:47:29;15.80;99.90
59881;DHT22;45751;51.380;10.326;2022-07-11T11:49:56;15.80;99.90
59881;DHT22;45751;51.380;10.326;2022-07-11T11:52:23;15.90;99.90
59881;DHT22;45751;51.380;10.326;2022-07-11T11:54:52;15.90;99.90
59881;DHT22;45751;51.380;10.326;2022-07-11T11:57:21;15.90;99.90
59881;DHT22;45751;51.380;10.326;2022-07-11T11:59:48;16.00;99.60
59881;DHT22;45751;51.380;10.326;2022-07-11T12:02:27;16.10;98.70
59881;DHT22;45751;51.380;10.326;2022-07-11T12:04:55;16.20;99.00
59881;DHT22;45751;51.380;10.326;2022-07-11T12:07:24;16.10;98.20
59881;DHT22;45751;51.380;10.326;2022-07-11T12:09:53;16.10;97.70
59881;DHT22;45751;51.380;10.326;2022-07-11T12:12:25;16.00;97.80
59881;DHT22;45751;51.380;10.326;2022-07-11T12:15:32;16.00;97.80
59881;DHT22;45751;51.380;10.326;2022-07-11T12:18:22;16.00;97.70
59881;DHT22;45751;51.380;10.326;2022-07-11T12:20:51;16.00;97.80
59881;DHT22;45751;51.380;10.326;2022-07-11T12:23:19;15.90;97.50
59881;DHT22;45751;51.380;10.326;2022-07-11T12:25:49;15.90;97.80
59881;DHT22;45751;51.380;10.326;2022-07-11T12:28:16;15.90;98.30
59881;DHT22;45751;51.380;10.326;2022-07-11T12:30:43;15.80;99.20
59881;DHT22;45751;51.380;10.326;2022-07-11T12:33:12;15.80;99.20
59881;DHT22;45751;51.380;10.326;2022-07-11T12:35:59;15.80;98.50
59881;DHT22;45751;51.380;10.326;2022-07-11T12:38:52;15.80;98.00
59881;DHT22;45751;51.380;10.326;2022-07-11T12:41:19;15.90;97.90
59881;DHT22;45751;51.380;10.326;2022-07-11T12:43:48;15.90;99.00
59881;DHT22;45751;51.380;10.326;2022-07-11T12:46:34;15.90;98.90
59881;DHT22;45751;51.380;10.326;2022-07-11T12:49:04;16.00;96.90
59881;DHT22;45751;51.380;10.326;2022-07-11T12:51:36;16.00;95.70
59881;DHT22;45751;51.380;10.326;2022-07-11T12:54:08;16.00;95.60
59881;DHT22;45751;51.380;10.326;2022-07-11T12:56:36;16.00;96.40
59881;DHT22;45751;51.380;10.326;2022-07-11T12:59:04;16.10;97.00
59881;DHT22;45751;51.380;10.326;2022-07-11T13:04:38;16.20;95.20
59881;DHT22;45751;51.380;10.326;2022-07-11T13:10:32;16.30;94.40
59881;DHT22;45751;51.380;10.326;2022-07-11T13:13:32;16.30;93.90
59881;DHT22;45751;51.380;10.326;2022-07-11T13:15:59;16.40;94.10
59881;DHT22;45751;51.380;10.326;2022-07-11T13:18:26;16.40;95.00
59881;DHT22;45751;51.380;10.326;2022-07-11T13:20:53;16.40;95.30
59881;DHT22;45751;51.380;10.326;2022-07-11T13:23:22;16.40;95.70
59881;DHT22;45751;51.380;10.326;2022-07-11T13:25:49;16.30;95.60
59881;DHT22;45751;51.380;10.326;2022-07-11T13:28:16;16.40;96.00
59881;DHT22;45751;51.380;10.326;2022-07-11T13:30:43;16.40;96.10
59881;DHT22;45751;51.380;10.326;2022-07-11T13:33:30;16.40;95.90
59881;DHT22;45751;51.380;10.326;2022-07-11T13:35:57;16.40;95.80
59881;DHT22;45751;51.380;10.326;2022-07-11T13:38:24;16.40;96.30
59881;DHT22;45751;51.380;10.326;2022-07-11T13:40:51;16.40;96.50
59881;DHT22;45751;51.380;10.326;2022-07-11T13:43:18;16.40;96.60
59881;DHT22;45751;51.380;10.326;2022-07-11T13:45:45;16.40;97.20
59881;DHT22;45751;51.380;10.326;2022-07-11T13:48:14;16.40;97.30
59881;DHT22;45751;51.380;10.326;2022-07-11T13:50:41;16.40;97.00
59881;DHT22;45751;51.380;10.326;2022-07-11T13:53:09;16.30;97.40
59881;DHT22;45751;51.380;10.326;2022-07-11T13:55:36;16.30;98.20
59881;DHT22;45751;51.380;10.326;2022-07-11T13:58:03;16.30;98.30
59881;DHT22;45751;51.380;10.326;2022-07-11T14:00:30;16.30;98.40
59881;DHT22;45751;51.380;10.326;2022-07-11T14:02:58;16.40;98.20
59881;DHT22;45751;51.380;10.326;2022-07-11T14:05:25;16.50;98.10
59881;DHT22;45751;51.380;10.326;2022-07-11T14:07:52;16.60;98.50
59881;DHT22;45751;51.380;10.326;2022-07-11T14:10:20;16.60;98.60
59881;DHT22;45751;51.380;10.326;2022-07-11T14:12:54;16.80;98.30
59881;DHT22;45751;51.380;10.326;2022-07-11T14:15:21;16.90;97.00
59881;DHT22;45751;51.380;10.326;2022-07-11T14:17:48;17.00;96.10
59881;DHT22;45751;51.380;10.326;2022-07-11T14:20:16;17.10;94.40
59881;DHT22;45751;51.380;10.326;2022-07-11T14:22:43;17.00;94.70
59881;DHT22;45751;51.380;10.326;2022-07-11T14:25:10;17.10;94.30
59881;DHT22;45751;51.380;10.326;2022-07-11T14:27:37;16.90;94.20
59881;DHT22;45751;51.380;10.326;2022-07-11T14:30:05;16.80;94.70
59881;DHT22;45751;51.380;10.326;2022-07-11T14:32:32;16.80;95.60
59881;DHT22;45751;51.380;10.326;2022-07-11T14:34:59;16.70;95.30
59881;DHT22;45751;51.380;10.326;2022-07-11T14:37:26;16.60;95.20
59881;DHT22;45751;51.380;10.326;2022-07-11T14:39:53;16.60;96.00
59881;DHT22;45751;51.380;10.326;2022-07-11T14:42:20;16.50;96.30
59881;DHT22;45751;51.380;10.326;2022-07-11T14:45:07;16.40;97.50
59881;DHT22;45751;51.380;10.326;2022-07-11T14:47:34;16.30;98.20
59881;DHT22;45751;51.380;10.326;2022-07-11T14:50:02;16.30;98.90
59881;DHT22;45751;51.380;10.326;2022-07-11T14:52:29;16.10;99.90
59881;DHT22;45751;51.380;10.326;2022-07-11T14:54:56;16.30;99.20
59881;DHT22;45751;51.380;10.326;2022-07-11T14:57:23;16.20;99.20
59881;DHT22;45751;51.380;10.326;2022-07-11T14:59:50;16.20;99.10
59881;DHT22;45751;51.380;10.326;2022-07-11T15:02:18;16.20;99.50
59881;DHT22;45751;51.380;10.326;2022-07-11T15:05:05;16.20;99.00
59881;DHT22;45751;51.380;10.326;2022-07-11T15:07:32;16.20;99.20
59881;DHT22;45751;51.380;10.326;2022-07-11T15:10:18;16.10;98.70
59881;DHT22;45751;51.380;10.326;2022-07-11T15:13:13;16.20;98.70
59881;DHT22;45751;51.380;10.326;2022-07-11T15:15:40;16.20;99.10
59881;DHT22;45751;51.380;10.326;2022-07-11T15:18:07;16.20;99.50
59881;DHT22;45751;51.380;10.326;2022-07-11T15:20:34;16.10;99.40
59881;DHT22;45751;51.380;10.326;2022-07-11T15:23:01;16.20;99.70
59881;DHT22;45751;51.380;10.326;2022-07-11T15:25:28;16.20;99.90
59881;DHT22;45751;51.380;10.326;2022-07-11T15:27:55;16.20;99.90
59881;DHT22;45751;51.380;10.326;2022-07-11T15:30:23;16.10;99.90
59881;DHT22;45751;51.380;10.326;2022-07-11T15:32:50;16.20;99.90
59881;DHT22;45751;51.380;10.326;2022-07-11T15:35:17;16.20;99.90
59881;DHT22;45751;51.380;10.326;2022-07-11T15:37:44;16.20;99.90
59881;DHT22;45751;51.380;10.326;2022-07-11T15:40:11;16.30;99.90
59881;DHT22;45751;51.380;10.326;2022-07-11T15:42:39;16.30;99.90
59881;DHT22;45751;51.380;10.326;2022-07-11T15:45:06;16.40;98.60
59881;DHT22;45751;51.380;10.326;2022-07-11T15:47:35;16.50;97.70
59881;DHT22;45751;51.380;10.326;2022-07-11T15:50:03;16.50;97.60
59881;DHT22;45751;51.380;10.326;2022-07-11T15:52:31;16.50;97.10
59881;DHT22;45751;51.380;10.326;2022-07-11T15:54:58;16.50;97.00